Magothy — WDE5803 — position and weather

sailwx.info

Track history (hours):
 
Tides and Currents Weather Stations Pressure Air Temp Water Temp Dewpoint Dewpoint Depression Visibility Wind Speed Wind Dir Waves Ship Positions

Magothy

Owner: Vane Line Bunkering, Inc., Philadelphia, PA. More information available from US FCC via Universal Licensing System and Coast Guard Vessel Documentation Center.

Last reported at 2018-Feb-17 20:00 UTC. Time now 2018-Feb-17 20:11 UTC.
Position N 40°41' W 074°09'.

Length 33 m; draft 5 m.

Type: Towing. MMSI: 367371810.

Date/timePositionNaut miles runAvg speedWind from/ knotsBaromVisibWave heightAir tempDewpointWater temp
2018-Feb-17 20:00N 40°41' W 074°09'0 0.6
2018-Feb-17 19:30N 40°41' W 074°09'2 4.5
2018-Feb-17 19:00N 40°39' W 074°09'2 3.7
2018-Feb-17 18:30N 40°39' W 074°07'0 0.0
2018-Feb-17 18:00N 40°39' W 074°07'0 0.1
2018-Feb-17 17:30N 40°39' W 074°07'1 2.9
2018-Feb-17 17:00N 40°39' W 074°05'4 7.3
2018-Feb-17 16:30N 40°40' W 074°00'0 0.0
2018-Feb-17 16:01N 40°40' W 074°00'4 8.0
2018-Feb-17 15:30N 40°39' W 074°05'0 0.7
2018-Feb-17 15:00N 40°39' W 074°05'2 4.4
2018-Feb-17 14:30N 40°39' W 074°02'1 2.8
2018-Feb-17 14:01N 40°40' W 074°01'0 0.2
2018-Feb-17 13:30N 40°40' W 074°00'0 0.0
2018-Feb-17 13:00N 40°40' W 074°00'0 0.0
2018-Feb-17 12:30N 40°40' W 074°00'0 0.0
2018-Feb-17 12:00N 40°40' W 074°00'0 0.0
2018-Feb-17 11:30N 40°40' W 074°00'0 0.0
2018-Feb-17 11:00N 40°40' W 074°00'0 0.0
2018-Feb-17 10:30N 40°40' W 074°00'0 0.0
2018-Feb-17 10:00N 40°40' W 074°00'0 0.0
2018-Feb-17 09:30N 40°40' W 074°00'0 0.0
2018-Feb-17 09:00N 40°40' W 074°00'0 0.0
2018-Feb-17 08:30N 40°40' W 074°00'0 0.0
2018-Feb-17 08:00N 40°40' W 074°00'0 0.0
2018-Feb-17 07:30N 40°40' W 074°00'0 0.0
2018-Feb-17 07:00N 40°40' W 074°00'0 0.0
2018-Feb-17 06:30N 40°40' W 074°00'0 0.0
2018-Feb-17 06:00N 40°40' W 074°00'0 0.0
2018-Feb-17 05:30N 40°40' W 074°00'0 0.0
2018-Feb-17 05:00N 40°40' W 074°00'0 0.0
2018-Feb-17 04:30N 40°40' W 074°00'0 0.0
2018-Feb-17 04:00N 40°40' W 074°00'2 3.4
2018-Feb-17 03:30N 40°40' W 074°03'2 3.5
2018-Feb-17 03:00N 40°41' W 074°01'0 0.1
2018-Feb-17 02:30N 40°41' W 074°01'0 0.7
2018-Feb-17 02:00N 40°41' W 074°00'0 0.0
2018-Feb-17 01:30N 40°41' W 074°00'0 0.0
2018-Feb-17 01:00N 40°41' W 074°00'1 2.3
2018-Feb-17 00:30N 40°41' W 074°01'1 2.1
2018-Feb-17 00:00N 40°40' W 074°00'0 0.0
2018-Feb-16 23:30N 40°40' W 074°00'0 0.0
2018-Feb-16 23:00N 40°40' W 074°00'0 0.0
2018-Feb-16 22:30N 40°40' W 074°00'0 0.6
2018-Feb-16 22:00N 40°40' W 074°00'2 3.1
2018-Feb-16 21:30N 40°41' W 074°00'1 2.5
2018-Feb-16 21:00N 40°41' W 074°02'4 7.2
2018-Feb-16 20:30N 40°39' W 074°06'2 4.8
2018-Feb-16 20:00N 40°40' W 074°08'1 2.6
2018-Feb-16 19:30N 40°41' W 074°09'1 2.6
2018-Feb-16 19:00N 40°40' W 074°09'0 0.0
2018-Feb-16 18:30N 40°40' W 074°09'0 0.0
2018-Feb-16 18:00N 40°40' W 074°09'0 0.0
2018-Feb-16 17:30N 40°40' W 074°09'0 0.0
2018-Feb-16 17:00N 40°40' W 074°09'0 0.0
2018-Feb-16 16:30N 40°40' W 074°09'0 0.0
2018-Feb-16 16:00N 40°40' W 074°09'1 2.1
2018-Feb-16 15:30N 40°39' W 074°09'2 4.3
2018-Feb-16 15:00N 40°39' W 074°06'2 3.4
2018-Feb-16 14:30N 40°39' W 074°08'2 4.9
2018-Feb-16 14:00N 40°41' W 074°09'0 0.0
2018-Feb-16 13:30N 40°41' W 074°09'2 4.8
2018-Feb-16 13:00N 40°39' W 074°08'4 8.9
2018-Feb-16 12:30N 40°39' W 074°03'2 4.5
2018-Feb-16 12:00N 40°40' W 074°00'0 0.0
2018-Feb-16 11:30N 40°40' W 074°00'0 0.0
2018-Feb-16 11:00N 40°40' W 074°00'0 0.0
2018-Feb-16 10:30N 40°40' W 074°00'0 0.0
2018-Feb-16 10:00N 40°40' W 074°00'0 0.0
2018-Feb-16 09:30N 40°40' W 074°00'0 0.0
2018-Feb-16 09:00N 40°40' W 074°00'0 0.0
2018-Feb-16 08:30N 40°40' W 074°00'2 4.2
2018-Feb-16 08:00N 40°39' W 074°02'3 6.4
2018-Feb-16 07:30N 40°39' W 074°07'0 0.1
2018-Feb-16 06:59N 40°39' W 074°07'1 1.4
2018-Feb-16 06:30N 40°39' W 074°07'3 5.0
2018-Feb-16 06:00N 40°41' W 074°09'0 0.4
2018-Feb-16 05:30N 40°41' W 074°09'0 0.0
2018-Feb-16 05:00N 40°41' W 074°09'0 0.0
2018-Feb-16 04:30N 40°41' W 074°09'0 0.0
2018-Feb-16 04:00N 40°41' W 074°09'0 0.0
2018-Feb-16 03:30N 40°41' W 074°09'0 0.0
2018-Feb-16 03:00N 40°41' W 074°09'0 0.0
2018-Feb-16 02:30N 40°41' W 074°09'0 0.0
2018-Feb-16 02:00N 40°41' W 074°09'0 0.0
2018-Feb-16 01:30N 40°41' W 074°09'0 0.0
2018-Feb-16 01:00N 40°41' W 074°09'0 0.0
2018-Feb-16 00:29N 40°41' W 074°09'0 0.0
2018-Feb-16 00:00N 40°41' W 074°09'0 0.0
2018-Feb-15 23:30N 40°41' W 074°09'0 0.0
2018-Feb-15 23:00N 40°41' W 074°09'0 0.0
2018-Feb-15 22:30N 40°41' W 074°09'0 0.0
2018-Feb-15 22:00N 40°41' W 074°09'2 4.9
2018-Feb-15 21:30N 40°39' W 074°08'5 9.1
2018-Feb-15 21:00N 40°39' W 074°02'2 3.8
2018-Feb-15 20:30N 40°40' W 074°00'3 5.5
2018-Feb-15 20:00N 40°38' W 074°03'2 4.4
2018-Feb-15 19:27N 40°36' W 074°02'0 0.0
2018-Feb-15 19:00N 40°36' W 074°02'0 0.0
2018-Feb-15 18:30N 40°36' W 074°02'0 0.0
2018-Feb-15 18:00N 40°36' W 074°02'0 0.0
2018-Feb-15 17:27N 40°36' W 074°02'0 0.0
2018-Feb-15 17:00N 40°36' W 074°02'0 0.0
2018-Feb-15 16:27N 40°36' W 074°02'0 0.2
2018-Feb-15 16:00N 40°36' W 074°02'0 0.3
2018-Feb-15 15:30N 40°36' W 074°02'0 0.1
2018-Feb-15 15:00N 40°36' W 074°02'0 0.4
2018-Feb-15 14:30N 40°36' W 074°02'0 0.2
2018-Feb-15 14:00N 40°36' W 074°02'0 0.1
2018-Feb-15 13:30N 40°36' W 074°02'0 0.0
2018-Feb-15 13:01N 40°36' W 074°02'0 0.0
2018-Feb-15 12:30N 40°36' W 074°02'0 0.0
2018-Feb-15 12:00N 40°36' W 074°02'0 0.8
2018-Feb-15 11:30N 40°36' W 074°02'1 2.5
2018-Feb-15 11:00N 40°37' W 074°04'1 1.6
2018-Feb-15 10:31N 40°38' W 074°04'2 4.2
2018-Feb-15 10:01N 40°39' W 074°06'3 5.8
2018-Feb-15 09:31N 40°39' W 074°10'1 1.8
2018-Feb-15 08:59N 40°39' W 074°11'0 0.1
2018-Feb-15 08:30N 40°39' W 074°11'0 0.0
2018-Feb-15 08:00N 40°39' W 074°11'0 0.0
2018-Feb-15 07:30N 40°39' W 074°11'0 0.0
2018-Feb-15 07:00N 40°39' W 074°11'4 7.0
2018-Feb-15 06:22N 40°39' W 074°05'1 3.7
2018-Feb-15 06:01N 40°38' W 074°04'0 0.0
2018-Feb-15 05:30N 40°38' W 074°04'0 0.2
2018-Feb-15 05:01N 40°38' W 074°04'0 0.8
2018-Feb-15 04:30N 40°38' W 074°04'0 0.1
2018-Feb-15 04:00N 40°38' W 074°04'0 0.0
2018-Feb-15 03:30N 40°38' W 074°04'0 0.8
2018-Feb-15 03:00N 40°38' W 074°04'2 3.9
2018-Feb-15 02:31N 40°39' W 074°03'0 0.9
2018-Feb-15 02:00N 40°39' W 074°04'1 1.9
2018-Feb-15 01:30N 40°38' W 074°04'2 4.3
2018-Feb-15 01:00N 40°39' W 074°06'2 3.9
2018-Feb-15 00:30N 40°40' W 074°08'1 2.9
2018-Feb-15 00:00N 40°42' W 074°08'0 0.2
2018-Feb-14 23:29N 40°42' W 074°08'0 0.0
2018-Feb-14 23:00N 40°42' W 074°08'0 0.0
2018-Feb-14 22:29N 40°42' W 074°08'0 0.0
2018-Feb-14 21:58N 40°42' W 074°08'0 0.0
2018-Feb-14 21:30N 40°42' W 074°08'0 0.0
2018-Feb-14 21:00N 40°42' W 074°08'0 0.0
2018-Feb-14 20:30N 40°42' W 074°08'0 0.0
2018-Feb-14 20:00N 40°42' W 074°08'0 0.0
2018-Feb-14 19:29N 40°42' W 074°08'0 0.0
2018-Feb-14 19:00N 40°42' W 074°08'0 0.0
2018-Feb-14 18:30N 40°42' W 074°08'3 6.0
2018-Feb-14 17:59N 40°39' W 074°09'4 8.5
2018-Feb-14 17:30N 40°39' W 074°04'3 5.3
2018-Feb-14 17:00N 40°40' W 074°00'0 0.0
2018-Feb-14 16:31N 40°40' W 074°00'1 1.1
2018-Feb-14 16:01N 40°40' W 074°01'3 6.9
2018-Feb-14 15:30N 40°39' W 074°05'0 0.1
2018-Feb-14 14:50N 40°39' W 074°05'0 0.0
2018-Feb-14 13:56N 40°39' W 074°05'0 0.0
2018-Feb-14 12:59N 40°39' W 074°05'1 1.0
2018-Feb-14 12:29N 40°39' W 074°06'0 0.1
2018-Feb-14 12:00N 40°39' W 074°06'0 0.6
2018-Feb-14 11:30N 40°39' W 074°07'0 0.0
2018-Feb-14 11:00N 40°39' W 074°07'0 0.0
2018-Feb-14 10:30N 40°39' W 074°07'0 0.0
2018-Feb-14 10:00N 40°39' W 074°07'3 5.4
2018-Feb-14 09:30N 40°39' W 074°03'0 0.2
2018-Feb-14 09:00N 40°39' W 074°03'0 0.4
2018-Feb-14 08:30N 40°39' W 074°03'2 3.3
2018-Feb-14 08:00N 40°39' W 074°05'0 0.0
2018-Feb-14 07:30N 40°39' W 074°05'0 0.6
2018-Feb-14 07:00N 40°39' W 074°05'4 7.5
2018-Feb-14 06:30N 40°40' W 074°00'0 0.0
2018-Feb-14 05:58N 40°40' W 074°00'0 0.6
2018-Feb-14 05:30N 40°40' W 074°00'0 0.9
2018-Feb-14 05:00N 40°40' W 074°01'2 4.8
2018-Feb-14 04:30N 40°38' W 074°03'2 4.2
2018-Feb-14 04:00N 40°36' W 074°01'0 0.1
2018-Feb-14 03:29N 40°36' W 074°01'0 0.1
2018-Feb-14 02:59N 40°36' W 074°01'0 0.2
2018-Feb-14 02:29N 40°36' W 074°01'0 0.2
2018-Feb-14 01:59N 40°36' W 074°01'0 0.1
2018-Feb-14 01:26N 40°36' W 074°02'0 0.0
2018-Feb-14 00:59N 40°36' W 074°01'0 0.0
2018-Feb-14 00:29N 40°36' W 074°02'0 0.0
2018-Feb-13 23:56N 40°36' W 074°01'0 0.0
2018-Feb-13 23:29N 40°36' W 074°01'0 0.0
2018-Feb-13 22:59N 40°36' W 074°01'0 0.0
2018-Feb-13 22:29N 40°36' W 074°01'0 0.1
2018-Feb-13 21:53N 40°36' W 074°01'0 0.0
2018-Feb-13 21:29N 40°36' W 074°01'0 0.1
2018-Feb-13 20:59N 40°36' W 074°01'0 0.0
2018-Feb-13 20:29N 40°36' W 074°01'0 0.0
2018-Feb-13 19:47N 40°36' W 074°01'0 0.1
2018-Feb-13 19:26N 40°36' W 074°01'0 0.1
2018-Feb-13 18:59N 40°36' W 074°01'0 0.2
2018-Feb-13 18:29N 40°36' W 074°01'0 0.1
2018-Feb-13 17:59N 40°36' W 074°01'0 0.1
2018-Feb-13 17:29N 40°36' W 074°01'0 0.0
2018-Feb-13 16:59N 40°36' W 074°01'0 0.0
2018-Feb-13 16:29N 40°36' W 074°01'0 0.0
2018-Feb-13 15:59N 40°36' W 074°01'0 0.0
2018-Feb-13 15:20N 40°36' W 074°01'0 0.1
2018-Feb-13 14:59N 40°36' W 074°01'0 0.1
2018-Feb-13 14:29N 40°36' W 074°01'0 0.1
2018-Feb-13 13:59N 40°36' W 074°01'0 0.0
2018-Feb-13 13:29N 40°36' W 074°01'0 0.1
2018-Feb-13 12:59N 40°36' W 074°01'0 0.1
2018-Feb-13 12:29N 40°36' W 074°01'0 0.1
2018-Feb-13 11:59N 40°36' W 074°01'0 0.1
2018-Feb-13 11:29N 40°36' W 074°01'0 0.0
2018-Feb-13 10:59N 40°36' W 074°01'0 0.1
2018-Feb-13 10:29N 40°36' W 074°01'0 0.1
2018-Feb-13 09:59N 40°36' W 074°01'0 0.0
2018-Feb-13 09:29N 40°36' W 074°01'0 0.0
2018-Feb-13 08:59N 40°36' W 074°01'0 0.0
2018-Feb-13 08:29N 40°36' W 074°01'0 0.0
2018-Feb-13 07:59N 40°36' W 074°01'0 0.0
2018-Feb-13 07:29N 40°36' W 074°01'0 0.0
2018-Feb-13 06:59N 40°36' W 074°01'0 0.0
2018-Feb-13 06:29N 40°36' W 074°01'0 0.0
2018-Feb-13 05:59N 40°36' W 074°01'0 0.0
2018-Feb-13 05:29N 40°36' W 074°01'0 0.1
2018-Feb-13 04:56N 40°36' W 074°01'0 0.0
2018-Feb-13 04:26N 40°36' W 074°01'0 0.0
2018-Feb-13 03:59N 40°36' W 074°01'0 0.0
2018-Feb-13 03:29N 40°36' W 074°01'0 0.0
2018-Feb-13 02:59N 40°36' W 074°01'0 0.0
2018-Feb-13 02:30N 40°36' W 074°01'1 1.2
2018-Feb-13 01:59N 40°36' W 074°02'4 8.6
2018-Feb-13 01:30N 40°40' W 074°03'5 9.5
2018-Feb-13 01:00N 40°45' W 074°01'5 9.3
2018-Feb-13 00:30N 40°49' W 073°58'5 9.0
2018-Feb-13 00:00N 40°53' W 073°56'  
2018-Feb-10 10:28N 40°56' W 073°55'5 9.8
2018-Feb-10 10:00N 40°51' W 073°57'510.2
2018-Feb-10 09:30N 40°47' W 073°60'5 9.6
2018-Feb-10 09:00N 40°42' W 074°02'4 8.0
2018-Feb-10 08:31N 40°39' W 074°04'1 1.4
2018-Feb-10 08:00N 40°39' W 074°05'0 0.0
2018-Feb-10 07:29N 40°39' W 074°05'0 0.0
2018-Feb-10 06:59N 40°39' W 074°05'0 0.0
2018-Feb-10 06:29N 40°39' W 074°05'0 0.0
2018-Feb-10 05:59N 40°39' W 074°05'0 0.0
2018-Feb-10 05:29N 40°39' W 074°05'0 0.0
2018-Feb-10 04:59N 40°39' W 074°05'0 0.0
2018-Feb-10 04:29N 40°39' W 074°05'0 0.0
2018-Feb-10 03:56N 40°39' W 074°05'0 0.0
2018-Feb-10 03:23N 40°39' W 074°05'0 0.0
2018-Feb-10 02:59N 40°39' W 074°05'0 0.0
2018-Feb-10 02:29N 40°39' W 074°05'1 1.9
2018-Feb-10 02:00N 40°40' W 074°04'1 1.1
2018-Feb-10 01:28N 40°40' W 074°05'0 0.0
2018-Feb-10 00:58N 40°40' W 074°05'0 0.0
2018-Feb-10 00:25N 40°40' W 074°05'0 0.0
2018-Feb-09 23:58N 40°40' W 074°05'0 0.0
2018-Feb-09 23:28N 40°40' W 074°05'0 0.0
2018-Feb-09 22:58N 40°40' W 074°05'0 0.0
2018-Feb-09 22:43N 40°40' W 074°05'2 0.4
2018-Feb-09 16:30N 40°40' W 074°02'1 0.4
2018-Feb-09 13:30N 40°39' W 074°02'5 3.5
2018-Feb-09 12:01N 40°41' W 074°08'0 0.1
2018-Feb-09 11:30N 40°41' W 074°08'0 0.0
2018-Feb-09 11:00N 40°41' W 074°08'4 0.7
2018-Feb-09 05:31N 40°40' W 074°03'2 1.5
2018-Feb-09 04:30N 40°40' W 074°01'2 0.7
2018-Feb-09 02:00N 40°39' W 074°03'2 3.5
2018-Feb-09 01:30N 40°40' W 074°01'0 0.0
2018-Feb-08 21:30N 40°40' W 074°01'0 0.0
2018-Feb-08 15:30N 40°40' W 074°01'3 3.2
2018-Feb-08 14:30N 40°39' W 074°05'2 3.1
2018-Feb-08 14:00N 40°38' W 074°03'12 0.9
2018-Feb-08 01:22N 40°48' W 073°54'0 0.0
2018-Feb-08 00:49N 40°48' W 073°54'0 0.0
2018-Feb-08 00:24N 40°48' W 073°54'0 0.0
2018-Feb-07 23:53N 40°48' W 073°54'0 0.0
2018-Feb-07 23:28N 40°48' W 073°54'0 0.0
2018-Feb-07 22:59N 40°48' W 073°54'0 0.0
2018-Feb-07 22:23N 40°48' W 073°54'0 0.0
2018-Feb-07 21:59N 40°48' W 073°54'0 0.0
2018-Feb-07 21:31N 40°48' W 073°54'  
Track history (hours):
 
Tides and Currents Weather Stations Pressure Air Temp Water Temp Dewpoint Dewpoint Depression Visibility Wind Speed Wind Dir Waves Ship Positions

Magothy

Owner: Vane Line Bunkering, Inc., Philadelphia, PA. More information available from US FCC via Universal Licensing System and Coast Guard Vessel Documentation Center.

Last reported at 2018-Feb-17 20:00 UTC. Time now 2018-Feb-17 20:11 UTC.
Position N 40°41' W 074°09'.

Length 33 m; draft 5 m.

Type: Towing. MMSI: 367371810.

Date/timePositionNaut miles runAvg speedWind from/ knotsBaromVisibWave heightAir tempDewpointWater temp
2018-Feb-17 20:00N 40°41' W 074°09'0 0.6
2018-Feb-17 19:30N 40°41' W 074°09'2 4.5
2018-Feb-17 19:00N 40°39' W 074°09'2 3.7
2018-Feb-17 18:30N 40°39' W 074°07'0 0.0
2018-Feb-17 18:00N 40°39' W 074°07'0 0.1
2018-Feb-17 17:30N 40°39' W 074°07'1 2.9
2018-Feb-17 17:00N 40°39' W 074°05'4 7.3
2018-Feb-17 16:30N 40°40' W 074°00'0 0.0
2018-Feb-17 16:01N 40°40' W 074°00'4 8.0
2018-Feb-17 15:30N 40°39' W 074°05'0 0.7
2018-Feb-17 15:00N 40°39' W 074°05'2 4.4
2018-Feb-17 14:30N 40°39' W 074°02'1 2.8
2018-Feb-17 14:01N 40°40' W 074°01'0 0.2
2018-Feb-17 13:30N 40°40' W 074°00'0 0.0
2018-Feb-17 13:00N 40°40' W 074°00'0 0.0
2018-Feb-17 12:30N 40°40' W 074°00'0 0.0
2018-Feb-17 12:00N 40°40' W 074°00'0 0.0
2018-Feb-17 11:30N 40°40' W 074°00'0 0.0
2018-Feb-17 11:00N 40°40' W 074°00'0 0.0
2018-Feb-17 10:30N 40°40' W 074°00'0 0.0
2018-Feb-17 10:00N 40°40' W 074°00'0 0.0
2018-Feb-17 09:30N 40°40' W 074°00'0 0.0
2018-Feb-17 09:00N 40°40' W 074°00'0 0.0
2018-Feb-17 08:30N 40°40' W 074°00'0 0.0
2018-Feb-17 08:00N 40°40' W 074°00'0 0.0
2018-Feb-17 07:30N 40°40' W 074°00'0 0.0
2018-Feb-17 07:00N 40°40' W 074°00'0 0.0
2018-Feb-17 06:30N 40°40' W 074°00'0 0.0
2018-Feb-17 06:00N 40°40' W 074°00'0 0.0
2018-Feb-17 05:30N 40°40' W 074°00'0 0.0
2018-Feb-17 05:00N 40°40' W 074°00'0 0.0
2018-Feb-17 04:30N 40°40' W 074°00'0 0.0
2018-Feb-17 04:00N 40°40' W 074°00'2 3.4
2018-Feb-17 03:30N 40°40' W 074°03'2 3.5
2018-Feb-17 03:00N 40°41' W 074°01'0 0.1
2018-Feb-17 02:30N 40°41' W 074°01'0 0.7
2018-Feb-17 02:00N 40°41' W 074°00'0 0.0
2018-Feb-17 01:30N 40°41' W 074°00'0 0.0
2018-Feb-17 01:00N 40°41' W 074°00'1 2.3
2018-Feb-17 00:30N 40°41' W 074°01'1 2.1
2018-Feb-17 00:00N 40°40' W 074°00'0 0.0
2018-Feb-16 23:30N 40°40' W 074°00'0 0.0
2018-Feb-16 23:00N 40°40' W 074°00'0 0.0
2018-Feb-16 22:30N 40°40' W 074°00'0 0.6
2018-Feb-16 22:00N 40°40' W 074°00'2 3.1
2018-Feb-16 21:30N 40°41' W 074°00'1 2.5
2018-Feb-16 21:00N 40°41' W 074°02'4 7.2
2018-Feb-16 20:30N 40°39' W 074°06'2 4.8
2018-Feb-16 20:00N 40°40' W 074°08'1 2.6
2018-Feb-16 19:30N 40°41' W 074°09'1 2.6
2018-Feb-16 19:00N 40°40' W 074°09'0 0.0
2018-Feb-16 18:30N 40°40' W 074°09'0 0.0
2018-Feb-16 18:00N 40°40' W 074°09'0 0.0
2018-Feb-16 17:30N 40°40' W 074°09'0 0.0
2018-Feb-16 17:00N 40°40' W 074°09'0 0.0
2018-Feb-16 16:30N 40°40' W 074°09'0 0.0
2018-Feb-16 16:00N 40°40' W 074°09'1 2.1
2018-Feb-16 15:30N 40°39' W 074°09'2 4.3
2018-Feb-16 15:00N 40°39' W 074°06'2 3.4
2018-Feb-16 14:30N 40°39' W 074°08'2 4.9
2018-Feb-16 14:00N 40°41' W 074°09'0 0.0
2018-Feb-16 13:30N 40°41' W 074°09'2 4.8
2018-Feb-16 13:00N 40°39' W 074°08'4 8.9
2018-Feb-16 12:30N 40°39' W 074°03'2 4.5
2018-Feb-16 12:00N 40°40' W 074°00'0 0.0
2018-Feb-16 11:30N 40°40' W 074°00'0 0.0
2018-Feb-16 11:00N 40°40' W 074°00'0 0.0
2018-Feb-16 10:30N 40°40' W 074°00'0 0.0
2018-Feb-16 10:00N 40°40' W 074°00'0 0.0
2018-Feb-16 09:30N 40°40' W 074°00'0 0.0
2018-Feb-16 09:00N 40°40' W 074°00'0 0.0
2018-Feb-16 08:30N 40°40' W 074°00'2 4.2
2018-Feb-16 08:00N 40°39' W 074°02'3 6.4
2018-Feb-16 07:30N 40°39' W 074°07'0 0.1
2018-Feb-16 06:59N 40°39' W 074°07'1 1.4
2018-Feb-16 06:30N 40°39' W 074°07'3 5.0
2018-Feb-16 06:00N 40°41' W 074°09'0 0.4
2018-Feb-16 05:30N 40°41' W 074°09'0 0.0
2018-Feb-16 05:00N 40°41' W 074°09'0 0.0
2018-Feb-16 04:30N 40°41' W 074°09'0 0.0
2018-Feb-16 04:00N 40°41' W 074°09'0 0.0
2018-Feb-16 03:30N 40°41' W 074°09'0 0.0
2018-Feb-16 03:00N 40°41' W 074°09'0 0.0
2018-Feb-16 02:30N 40°41' W 074°09'0 0.0
2018-Feb-16 02:00N 40°41' W 074°09'0 0.0
2018-Feb-16 01:30N 40°41' W 074°09'0 0.0
2018-Feb-16 01:00N 40°41' W 074°09'0 0.0
2018-Feb-16 00:29N 40°41' W 074°09'0 0.0
2018-Feb-16 00:00N 40°41' W 074°09'0 0.0
2018-Feb-15 23:30N 40°41' W 074°09'0 0.0
2018-Feb-15 23:00N 40°41' W 074°09'0 0.0
2018-Feb-15 22:30N 40°41' W 074°09'0 0.0
2018-Feb-15 22:00N 40°41' W 074°09'2 4.9
2018-Feb-15 21:30N 40°39' W 074°08'5 9.1
2018-Feb-15 21:00N 40°39' W 074°02'2 3.8
2018-Feb-15 20:30N 40°40' W 074°00'3 5.5
2018-Feb-15 20:00N 40°38' W 074°03'2 4.4
2018-Feb-15 19:27N 40°36' W 074°02'0 0.0
2018-Feb-15 19:00N 40°36' W 074°02'0 0.0
2018-Feb-15 18:30N 40°36' W 074°02'0 0.0
2018-Feb-15 18:00N 40°36' W 074°02'0 0.0
2018-Feb-15 17:27N 40°36' W 074°02'0 0.0
2018-Feb-15 17:00N 40°36' W 074°02'0 0.0
2018-Feb-15 16:27N 40°36' W 074°02'0 0.2
2018-Feb-15 16:00N 40°36' W 074°02'0 0.3
2018-Feb-15 15:30N 40°36' W 074°02'0 0.1
2018-Feb-15 15:00N 40°36' W 074°02'0 0.4
2018-Feb-15 14:30N 40°36' W 074°02'0 0.2
2018-Feb-15 14:00N 40°36' W 074°02'0 0.1
2018-Feb-15 13:30N 40°36' W 074°02'0 0.0
2018-Feb-15 13:01N 40°36' W 074°02'0 0.0
2018-Feb-15 12:30N 40°36' W 074°02'0 0.0
2018-Feb-15 12:00N 40°36' W 074°02'0 0.8
2018-Feb-15 11:30N 40°36' W 074°02'1 2.5
2018-Feb-15 11:00N 40°37' W 074°04'1 1.6
2018-Feb-15 10:31N 40°38' W 074°04'2 4.2
2018-Feb-15 10:01N 40°39' W 074°06'3 5.8
2018-Feb-15 09:31N 40°39' W 074°10'1 1.8
2018-Feb-15 08:59N 40°39' W 074°11'0 0.1
2018-Feb-15 08:30N 40°39' W 074°11'0 0.0
2018-Feb-15 08:00N 40°39' W 074°11'0 0.0
2018-Feb-15 07:30N 40°39' W 074°11'0 0.0
2018-Feb-15 07:00N 40°39' W 074°11'4 7.0
2018-Feb-15 06:22N 40°39' W 074°05'1 3.7
2018-Feb-15 06:01N 40°38' W 074°04'0 0.0
2018-Feb-15 05:30N 40°38' W 074°04'0 0.2
2018-Feb-15 05:01N 40°38' W 074°04'0 0.8
2018-Feb-15 04:30N 40°38' W 074°04'0 0.1
2018-Feb-15 04:00N 40°38' W 074°04'0 0.0
2018-Feb-15 03:30N 40°38' W 074°04'0 0.8
2018-Feb-15 03:00N 40°38' W 074°04'2 3.9
2018-Feb-15 02:31N 40°39' W 074°03'0 0.9
2018-Feb-15 02:00N 40°39' W 074°04'1 1.9
2018-Feb-15 01:30N 40°38' W 074°04'2 4.3
2018-Feb-15 01:00N 40°39' W 074°06'2 3.9
2018-Feb-15 00:30N 40°40' W 074°08'1 2.9
2018-Feb-15 00:00N 40°42' W 074°08'0 0.2
2018-Feb-14 23:29N 40°42' W 074°08'0 0.0
2018-Feb-14 23:00N 40°42' W 074°08'0 0.0
2018-Feb-14 22:29N 40°42' W 074°08'0 0.0
2018-Feb-14 21:58N 40°42' W 074°08'0 0.0
2018-Feb-14 21:30N 40°42' W 074°08'0 0.0
2018-Feb-14 21:00N 40°42' W 074°08'0 0.0
2018-Feb-14 20:30N 40°42' W 074°08'0 0.0
2018-Feb-14 20:00N 40°42' W 074°08'0 0.0
2018-Feb-14 19:29N 40°42' W 074°08'0 0.0
2018-Feb-14 19:00N 40°42' W 074°08'0 0.0
2018-Feb-14 18:30N 40°42' W 074°08'3 6.0
2018-Feb-14 17:59N 40°39' W 074°09'4 8.5
2018-Feb-14 17:30N 40°39' W 074°04'3 5.3
2018-Feb-14 17:00N 40°40' W 074°00'0 0.0
2018-Feb-14 16:31N 40°40' W 074°00'1 1.1
2018-Feb-14 16:01N 40°40' W 074°01'3 6.9
2018-Feb-14 15:30N 40°39' W 074°05'0 0.1
2018-Feb-14 14:50N 40°39' W 074°05'0 0.0
2018-Feb-14 13:56N 40°39' W 074°05'0 0.0
2018-Feb-14 12:59N 40°39' W 074°05'1 1.0
2018-Feb-14 12:29N 40°39' W 074°06'0 0.1
2018-Feb-14 12:00N 40°39' W 074°06'0 0.6
2018-Feb-14 11:30N 40°39' W 074°07'0 0.0
2018-Feb-14 11:00N 40°39' W 074°07'0 0.0
2018-Feb-14 10:30N 40°39' W 074°07'0 0.0
2018-Feb-14 10:00N 40°39' W 074°07'3 5.4
2018-Feb-14 09:30N 40°39' W 074°03'0 0.2
2018-Feb-14 09:00N 40°39' W 074°03'0 0.4
2018-Feb-14 08:30N 40°39' W 074°03'2 3.3
2018-Feb-14 08:00N 40°39' W 074°05'0 0.0
2018-Feb-14 07:30N 40°39' W 074°05'0 0.6
2018-Feb-14 07:00N 40°39' W 074°05'4 7.5
2018-Feb-14 06:30N 40°40' W 074°00'0 0.0
2018-Feb-14 05:58N 40°40' W 074°00'0 0.6
2018-Feb-14 05:30N 40°40' W 074°00'0 0.9
2018-Feb-14 05:00N 40°40' W 074°01'2 4.8
2018-Feb-14 04:30N 40°38' W 074°03'2 4.2
2018-Feb-14 04:00N 40°36' W 074°01'0 0.1
2018-Feb-14 03:29N 40°36' W 074°01'0 0.1
2018-Feb-14 02:59N 40°36' W 074°01'0 0.2
2018-Feb-14 02:29N 40°36' W 074°01'0 0.2
2018-Feb-14 01:59N 40°36' W 074°01'0 0.1
2018-Feb-14 01:26N 40°36' W 074°02'0 0.0
2018-Feb-14 00:59N 40°36' W 074°01'0 0.0
2018-Feb-14 00:29N 40°36' W 074°02'0 0.0
2018-Feb-13 23:56N 40°36' W 074°01'0 0.0
2018-Feb-13 23:29N 40°36' W 074°01'0 0.0
2018-Feb-13 22:59N 40°36' W 074°01'0 0.0
2018-Feb-13 22:29N 40°36' W 074°01'0 0.1
2018-Feb-13 21:53N 40°36' W 074°01'0 0.0
2018-Feb-13 21:29N 40°36' W 074°01'0 0.1
2018-Feb-13 20:59N 40°36' W 074°01'0 0.0
2018-Feb-13 20:29N 40°36' W 074°01'0 0.0
2018-Feb-13 19:47N 40°36' W 074°01'0 0.1
2018-Feb-13 19:26N 40°36' W 074°01'0 0.1
2018-Feb-13 18:59N 40°36' W 074°01'0 0.2
2018-Feb-13 18:29N 40°36' W 074°01'0 0.1
2018-Feb-13 17:59N 40°36' W 074°01'0 0.1
2018-Feb-13 17:29N 40°36' W 074°01'0 0.0
2018-Feb-13 16:59N 40°36' W 074°01'0 0.0
2018-Feb-13 16:29N 40°36' W 074°01'0 0.0
2018-Feb-13 15:59N 40°36' W 074°01'0 0.0
2018-Feb-13 15:20N 40°36' W 074°01'0 0.1
2018-Feb-13 14:59N 40°36' W 074°01'0 0.1
2018-Feb-13 14:29N 40°36' W 074°01'0 0.1
2018-Feb-13 13:59N 40°36' W 074°01'0 0.0
2018-Feb-13 13:29N 40°36' W 074°01'0 0.1
2018-Feb-13 12:59N 40°36' W 074°01'0 0.1
2018-Feb-13 12:29N 40°36' W 074°01'0 0.1
2018-Feb-13 11:59N 40°36' W 074°01'0 0.1
2018-Feb-13 11:29N 40°36' W 074°01'0 0.0
2018-Feb-13 10:59N 40°36' W 074°01'0 0.1
2018-Feb-13 10:29N 40°36' W 074°01'0 0.1
2018-Feb-13 09:59N 40°36' W 074°01'0 0.0
2018-Feb-13 09:29N 40°36' W 074°01'0 0.0
2018-Feb-13 08:59N 40°36' W 074°01'0 0.0
2018-Feb-13 08:29N 40°36' W 074°01'0 0.0
2018-Feb-13 07:59N 40°36' W 074°01'0 0.0
2018-Feb-13 07:29N 40°36' W 074°01'0 0.0
2018-Feb-13 06:59N 40°36' W 074°01'0 0.0
2018-Feb-13 06:29N 40°36' W 074°01'0 0.0
2018-Feb-13 05:59N 40°36' W 074°01'0 0.0
2018-Feb-13 05:29N 40°36' W 074°01'0 0.1
2018-Feb-13 04:56N 40°36' W 074°01'0 0.0
2018-Feb-13 04:26N 40°36' W 074°01'0 0.0
2018-Feb-13 03:59N 40°36' W 074°01'0 0.0
2018-Feb-13 03:29N 40°36' W 074°01'0 0.0
2018-Feb-13 02:59N 40°36' W 074°01'0 0.0
2018-Feb-13 02:30N 40°36' W 074°01'1 1.2
2018-Feb-13 01:59N 40°36' W 074°02'4 8.6
2018-Feb-13 01:30N 40°40' W 074°03'5 9.5
2018-Feb-13 01:00N 40°45' W 074°01'5 9.3
2018-Feb-13 00:30N 40°49' W 073°58'5 9.0
2018-Feb-13 00:00N 40°53' W 073°56'  
2018-Feb-10 10:28N 40°56' W 073°55'5 9.8
2018-Feb-10 10:00N 40°51' W 073°57'510.2
2018-Feb-10 09:30N 40°47' W 073°60'5 9.6
2018-Feb-10 09:00N 40°42' W 074°02'4 8.0
2018-Feb-10 08:31N 40°39' W 074°04'1 1.4
2018-Feb-10 08:00N 40°39' W 074°05'0 0.0
2018-Feb-10 07:29N 40°39' W 074°05'0 0.0
2018-Feb-10 06:59N 40°39' W 074°05'0 0.0
2018-Feb-10 06:29N 40°39' W 074°05'0 0.0
2018-Feb-10 05:59N 40°39' W 074°05'0 0.0
2018-Feb-10 05:29N 40°39' W 074°05'0 0.0
2018-Feb-10 04:59N 40°39' W 074°05'0 0.0
2018-Feb-10 04:29N 40°39' W 074°05'0 0.0
2018-Feb-10 03:56N 40°39' W 074°05'0 0.0
2018-Feb-10 03:23N 40°39' W 074°05'0 0.0
2018-Feb-10 02:59N 40°39' W 074°05'0 0.0
2018-Feb-10 02:29N 40°39' W 074°05'1 1.9
2018-Feb-10 02:00N 40°40' W 074°04'1 1.1
2018-Feb-10 01:28N 40°40' W 074°05'0 0.0
2018-Feb-10 00:58N 40°40' W 074°05'0 0.0
2018-Feb-10 00:25N 40°40' W 074°05'0 0.0
2018-Feb-09 23:58N 40°40' W 074°05'0 0.0
2018-Feb-09 23:28N 40°40' W 074°05'0 0.0
2018-Feb-09 22:58N 40°40' W 074°05'0 0.0
2018-Feb-09 22:43N 40°40' W 074°05'2 0.4
2018-Feb-09 16:30N 40°40' W 074°02'1 0.4
2018-Feb-09 13:30N 40°39' W 074°02'5 3.5
2018-Feb-09 12:01N 40°41' W 074°08'0 0.1
2018-Feb-09 11:30N 40°41' W 074°08'0 0.0
2018-Feb-09 11:00N 40°41' W 074°08'4 0.7
2018-Feb-09 05:31N 40°40' W 074°03'2 1.5
2018-Feb-09 04:30N 40°40' W 074°01'2 0.7
2018-Feb-09 02:00N 40°39' W 074°03'2 3.5
2018-Feb-09 01:30N 40°40' W 074°01'0 0.0
2018-Feb-08 21:30N 40°40' W 074°01'0 0.0
2018-Feb-08 15:30N 40°40' W 074°01'3 3.2
2018-Feb-08 14:30N 40°39' W 074°05'2 3.1
2018-Feb-08 14:00N 40°38' W 074°03'12 0.9
2018-Feb-08 01:22N 40°48' W 073°54'0 0.0
2018-Feb-08 00:49N 40°48' W 073°54'0 0.0
2018-Feb-08 00:24N 40°48' W 073°54'0 0.0
2018-Feb-07 23:53N 40°48' W 073°54'0 0.0
2018-Feb-07 23:28N 40°48' W 073°54'0 0.0
2018-Feb-07 22:59N 40°48' W 073°54'0 0.0
2018-Feb-07 22:23N 40°48' W 073°54'0 0.0
2018-Feb-07 21:59N 40°48' W 073°54'0 0.0
2018-Feb-07 21:31N 40°48' W 073°54'  

Dump ship's entire track history